Time;durP1;ratioP1;P1;durP2;ratioP2;P2;SDS_P1;SDS_P2;PMS_P1;PMS_P2;Temp;Humidity;BMP_temperature;BMP_pressure;BME280_temperature;BME280_humidity;BME280_pressure;Samples;Min_cycle;Max_cycle;Signal;HPM_P1;HPM_P2
2021/08/24 00:01:12;;;;;;;13.35;5.05;;;;;;;;;;5090929;28;20035;-68
2021/08/24 00:03:38;;;;;;;9.82;4.18;;;;;;;;;;5088352;28;20031;-68
2021/08/24 00:06:04;;;;;;;9.93;4.72;;;;;;;;;;5092291;28;20515;-69
2021/08/24 00:08:31;;;;;;;10.20;5.00;;;;;;;;;;5092583;28;20024;-68
2021/08/24 00:10:58;;;;;;;15.05;4.15;;;;;;;;;;5092119;28;20446;-69
2021/08/24 00:13:26;;;;;;;12.88;5.35;;;;;;;;;;5089373;28;20047;-68
2021/08/24 00:15:52;;;;;;;14.55;4.70;;;;;;;;;;5091259;28;20092;-68
2021/08/24 00:18:18;;;;;;;9.35;4.78;;;;;;;;;;5091010;28;20111;-68
2021/08/24 00:20:46;;;;;;;13.48;4.75;;;;;;;;;;5091961;28;20031;-68
2021/08/24 00:23:13;;;;;;;12.63;5.10;;;;;;;;;;5089255;28;20020;-68
2021/08/24 00:25:39;;;;;;;11.95;5.00;;;;;;;;;;5091869;28;20024;-67
2021/08/24 00:28:06;;;;;;;12.00;4.78;;;;;;;;;;5092135;28;20067;-68
2021/08/24 00:30:32;;;;;;;14.45;4.60;;;;;;;;;;5091906;28;20035;-68
2021/08/24 00:32:58;;;;;;;10.80;4.75;;;;;;;;;;5089204;28;20027;-68
2021/08/24 00:35:24;;;;;;;11.82;4.95;;;;;;;;;;5090873;28;20031;-68
2021/08/24 00:37:51;;;;;;;9.45;4.75;;;;;;;;;;5112539;28;20023;-68
2021/08/24 00:40:17;;;;;;;9.18;4.25;;;;;;;;;;5111729;28;20028;-68
2021/08/24 00:42:45;;;;;;;15.10;5.10;;;;;;;;;;5109243;28;20327;-68
2021/08/24 00:45:12;;;;;;;15.85;5.95;;;;;;;;;;5093667;28;20100;-68
2021/08/24 00:47:40;;;;;;;12.73;4.63;;;;;;;;;;5112013;28;20020;-68
2021/08/24 00:50:24;;;;;;;11.93;5.28;;;;;;;;;;5111859;28;20058;-68
2021/08/24 00:52:50;;;;;;;13.32;4.40;;;;;;;;;;5108985;28;20023;-68
2021/08/24 00:55:17;;;;;;;10.40;4.57;;;;;;;;;;5096643;28;20035;-68
2021/08/24 00:57:45;;;;;;;10.20;4.30;;;;;;;;;;5091735;28;20081;-69
2021/08/24 01:00:11;;;;;;;10.73;4.43;;;;;;;;;;5091237;28;20031;-68
2021/08/24 01:02:37;;;;;;;11.02;4.45;;;;;;;;;;5088855;28;20089;-68
2021/08/24 01:05:05;;;;;;;9.25;4.47;;;;;;;;;;5091150;28;20024;-68
2021/08/24 01:07:42;;;;;;;13.85;5.10;;;;;;;;;;5090054;28;20023;-68
2021/08/24 01:10:14;;;;;;;7.93;4.60;;;;;;;;;;5090908;28;20024;-68
2021/08/24 01:12:54;;;;;;;8.82;4.93;;;;;;;;;;5088435;28;20050;-68
2021/08/24 01:15:38;;;;;;;10.50;4.10;;;;;;;;;;5091246;28;20070;-68
2021/08/24 01:18:04;;;;;;;12.93;5.70;;;;;;;;;;5091334;28;20030;-68
2021/08/24 01:20:32;;;;;;;12.93;4.70;;;;;;;;;;5089519;28;20028;-68
2021/08/24 01:23:07;;;;;;;13.52;5.03;;;;;;;;;;5087122;28;20020;-68
2021/08/24 01:25:46;;;;;;;11.07;5.55;;;;;;;;;;5090903;28;20390;-68
2021/08/24 01:28:21;;;;;;;13.93;4.90;;;;;;;;;;5091064;28;20525;-69
2021/08/24 01:30:48;;;;;;;9.35;4.43;;;;;;;;;;5090924;28;20062;-68
2021/08/24 01:33:41;;;;;;;17.00;4.57;;;;;;;;;;5088038;28;20013;-68
2021/08/24 01:36:27;;;;;;;10.38;4.78;;;;;;;;;;5087072;28;20065;-68
2021/08/24 01:39:05;;;;;;;18.17;5.55;;;;;;;;;;5091093;28;20070;-68
2021/08/24 01:41:50;;;;;;;10.23;4.35;;;;;;;;;;5101139;28;20072;-68
2021/08/24 01:44:21;;;;;;;10.77;4.22;;;;;;;;;;5108227;28;20423;-68
2021/08/24 01:47:05;;;;;;;12.00;4.45;;;;;;;;;;5111677;28;20028;-68
2021/08/24 01:49:42;;;;;;;13.77;4.78;;;;;;;;;;5111326;28;20127;-68
2021/08/24 01:52:10;;;;;;;7.55;3.97;;;;;;;;;;5110496;28;20627;-68
2021/08/24 01:54:41;;;;;;;10.77;4.20;;;;;;;;;;5087153;28;20038;-68
2021/08/24 01:57:18;;;;;;;9.35;3.78;;;;;;;;;;5090775;28;20081;-67
2021/08/24 01:59:49;;;;;;;12.00;4.47;;;;;;;;;;5090821;28;20031;-67
2021/08/24 02:02:17;;;;;;;9.43;3.88;;;;;;;;;;5089096;28;20101;-67
2021/08/24 02:04:53;;;;;;;11.13;3.90;;;;;;;;;;5089681;28;20157;-68
2021/08/24 02:07:20;;;;;;;9.30;3.75;;;;;;;;;;5072219;28;20047;-68
2021/08/24 02:09:48;;;;;;;9.77;4.68;;;;;;;;;;5072384;28;20017;-68
2021/08/24 02:12:16;;;;;;;6.82;3.60;;;;;;;;;;5089047;28;20031;-68
2021/08/24 02:14:42;;;;;;;14.20;4.47;;;;;;;;;;5089535;28;20019;-68
2021/08/24 02:17:10;;;;;;;9.23;3.95;;;;;;;;;;5090850;28;20024;-67
2021/08/24 02:19:38;;;;;;;8.10;4.20;;;;;;;;;;5090577;28;20019;-68
2021/08/24 02:22:08;;;;;;;8.18;4.25;;;;;;;;;;5090416;28;20027;-68
2021/08/24 02:24:37;;;;;;;12.32;4.07;;;;;;;;;;5092132;28;20012;-68
2021/08/24 02:27:06;;;;;;;10.60;3.72;;;;;;;;;;5094282;28;20035;-67
2021/08/24 02:29:32;;;;;;;7.13;3.78;;;;;;;;;;5075910;28;20027;-69
2021/08/24 02:32:04;;;;;;;9.45;4.25;;;;;;;;;;5094232;28;20028;-68
2021/08/24 02:34:38;;;;;;;11.70;4.05;;;;;;;;;;5083365;28;20024;-68
2021/08/24 02:37:23;;;;;;;8.75;3.88;;;;;;;;;;5114618;28;20023;-68
2021/08/24 02:39:55;;;;;;;10.50;3.53;;;;;;;;;;5114508;28;20114;-68
2021/08/24 02:42:27;;;;;;;9.13;3.65;;;;;;;;;;5111861;28;20389;-68
2021/08/24 02:44:55;;;;;;;13.00;4.00;;;;;;;;;;5114674;28;20388;-68
2021/08/24 02:47:22;;;;;;;9.77;3.60;;;;;;;;;;5114482;28;20012;-68
2021/08/24 02:49:49;;;;;;;10.30;3.78;;;;;;;;;;5095766;28;20050;-68
2021/08/24 02:52:15;;;;;;;10.10;3.60;;;;;;;;;;5112475;28;20031;-68
2021/08/24 02:54:43;;;;;;;8.05;3.30;;;;;;;;;;5102545;28;20500;-68
2021/08/24 02:57:10;;;;;;;10.57;3.83;;;;;;;;;;5093810;28;20258;-68
2021/08/24 02:59:36;;;;;;;9.60;3.50;;;;;;;;;;5093786;28;20017;-68
2021/08/24 03:02:02;;;;;;;12.35;4.78;;;;;;;;;;5093553;28;20024;-68
2021/08/24 03:04:29;;;;;;;11.02;4.10;;;;;;;;;;5090672;28;20024;-68
2021/08/24 03:06:58;;;;;;;14.35;3.80;;;;;;;;;;5093907;28;20108;-68
2021/08/24 03:09:26;;;;;;;11.20;3.72;;;;;;;;;;5093813;28;20032;-68
2021/08/24 03:11:54;;;;;;;10.48;4.25;;;;;;;;;;5075260;28;20023;-68
2021/08/24 03:14:22;;;;;;;7.78;3.53;;;;;;;;;;5090652;28;20494;-67
2021/08/24 03:16:50;;;;;;;8.15;3.40;;;;;;;;;;5093382;28;20494;-68
2021/08/24 03:19:21;;;;;;;10.07;3.63;;;;;;;;;;5093400;28;20058;-68
2021/08/24 03:21:48;;;;;;;7.72;3.30;;;;;;;;;;5093179;28;20087;-68
2021/08/24 03:24:15;;;;;;;9.90;3.25;;;;;;;;;;5071716;28;20028;-68
2021/08/24 03:26:42;;;;;;;10.38;3.33;;;;;;;;;;5093220;28;20028;-68
2021/08/24 03:29:10;;;;;;;8.05;3.47;;;;;;;;;;5093056;28;20566;-68
2021/08/24 03:31:38;;;;;;;10.95;3.80;;;;;;;;;;5092868;28;20023;-68
2021/08/24 03:34:04;;;;;;;14.65;3.47;;;;;;;;;;5096518;28;20023;-68
2021/08/24 03:36:30;;;;;;;8.57;3.25;;;;;;;;;;5113435;28;20382;-68
2021/08/24 03:38:56;;;;;;;10.75;3.83;;;;;;;;;;5113516;28;20035;-68
2021/08/24 03:41:22;;;;;;;6.93;2.65;;;;;;;;;;5112942;28;20027;-68
2021/08/24 03:43:48;;;;;;;8.50;3.20;;;;;;;;;;5110483;28;20028;-68
2021/08/24 03:46:14;;;;;;;7.80;3.65;;;;;;;;;;5113216;28;20465;-68
2021/08/24 03:48:40;;;;;;;9.68;3.53;;;;;;;;;;5112988;28;20051;-68
2021/08/24 03:51:06;;;;;;;8.82;3.00;;;;;;;;;;5112787;28;20027;-68
2021/08/24 03:53:36;;;;;;;7.88;3.25;;;;;;;;;;5091675;28;20031;-68
2021/08/24 03:56:05;;;;;;;10.82;4.30;;;;;;;;;;5092531;28;20024;-68
2021/08/24 03:58:31;;;;;;;14.07;3.50;;;;;;;;;;5092743;28;20260;-68
2021/08/24 04:00:57;;;;;;;10.80;3.85;;;;;;;;;;5091140;28;20028;-68
2021/08/24 04:03:23;;;;;;;10.70;3.88;;;;;;;;;;5089550;28;20115;-67
2021/08/24 04:05:57;;;;;;;7.85;3.67;;;;;;;;;;5092274;28;20032;-68
2021/08/24 04:08:23;;;;;;;5.57;3.13;;;;;;;;;;5092453;28;20028;-68
2021/08/24 04:10:49;;;;;;;10.43;3.05;;;;;;;;;;5092132;28;20016;-68
2021/08/24 04:13:15;;;;;;;7.57;3.42;;;;;;;;;;5088142;28;20023;-68
2021/08/24 04:15:41;;;;;;;10.40;3.92;;;;;;;;;;5092533;28;20115;-68
2021/08/24 04:18:07;;;;;;;7.75;3.35;;;;;;;;;;5092157;28;20074;-68
2021/08/24 04:20:33;;;;;;;11.63;4.13;;;;;;;;;;5091824;28;20024;-67
2021/08/24 04:22:59;;;;;;;15.18;4.80;;;;;;;;;;5087846;28;20043;-68
2021/08/24 04:25:25;;;;;;;12.23;3.63;;;;;;;;;;5091707;28;20482;-68
2021/08/24 04:27:51;;;;;;;4.82;2.55;;;;;;;;;;5092107;28;20492;-68
2021/08/24 04:30:17;;;;;;;7.28;3.15;;;;;;;;;;5073926;28;20024;-68
2021/08/24 04:32:45;;;;;;;9.65;3.30;;;;;;;;;;5088988;28;20383;-68
2021/08/24 04:35:12;;;;;;;9.63;3.63;;;;;;;;;;5107427;28;20524;-67
2021/08/24 04:37:38;;;;;;;12.27;3.17;;;;;;;;;;5094259;28;20077;-67
2021/08/24 04:40:04;;;;;;;10.40;4.07;;;;;;;;;;5111919;28;20047;-68
2021/08/24 04:42:30;;;;;;;7.00;3.28;;;;;;;;;;5108876;28;20262;-66
2021/08/24 04:44:57;;;;;;;9.63;3.58;;;;;;;;;;5111564;28;20042;-67
2021/08/24 04:47:23;;;;;;;9.50;4.32;;;;;;;;;;5112059;28;20015;-68
2021/08/24 04:49:49;;;;;;;9.07;3.60;;;;;;;;;;5111806;28;20303;-68
2021/08/24 04:52:15;;;;;;;9.32;3.90;;;;;;;;;;5110165;28;20273;-68
2021/08/24 04:54:41;;;;;;;7.47;3.42;;;;;;;;;;5100419;28;20019;-68
2021/08/24 04:57:07;;;;;;;8.63;4.25;;;;;;;;;;5091531;28;20020;-67
2021/08/24 04:59:34;;;;;;;7.57;4.05;;;;;;;;;;5091867;28;20031;-68
2021/08/24 05:02:00;;;;;;;9.23;4.50;;;;;;;;;;5091291;28;20016;-68
2021/08/24 05:04:26;;;;;;;11.27;4.38;;;;;;;;;;5088441;28;20070;-68
2021/08/24 05:06:52;;;;;;;11.02;4.03;;;;;;;;;;5091371;28;20032;-68
2021/08/24 05:09:19;;;;;;;9.45;4.30;;;;;;;;;;5091300;28;20073;-68
2021/08/24 05:11:45;;;;;;;12.25;4.60;;;;;;;;;;5091131;28;20039;-67
2021/08/24 05:14:12;;;;;;;11.48;5.80;;;;;;;;;;5088336;28;20494;-67
2021/08/24 05:16:38;;;;;;;11.70;4.00;;;;;;;;;;5091290;28;20057;-68
2021/08/24 05:19:05;;;;;;;14.82;5.35;;;;;;;;;;5091195;28;20054;-68
2021/08/24 05:21:33;;;;;;;10.18;4.50;;;;;;;;;;5091252;28;20028;-67
2021/08/24 05:23:59;;;;;;;8.82;5.25;;;;;;;;;;5088417;28;20070;-68
2021/08/24 05:26:25;;;;;;;11.95;4.43;;;;;;;;;;5090879;28;20034;-68
2021/08/24 05:28:51;;;;;;;13.15;5.28;;;;;;;;;;5091040;28;20016;-68
2021/08/24 05:31:17;;;;;;;11.77;4.85;;;;;;;;;;5090892;28;20062;-68
2021/08/24 05:33:43;;;;;;;14.27;5.43;;;;;;;;;;5091688;28;20019;-68
2021/08/24 05:36:11;;;;;;;10.75;4.85;;;;;;;;;;5111198;28;20031;-68
2021/08/24 05:38:37;;;;;;;9.43;4.47;;;;;;;;;;5111524;28;20069;-67
2021/08/24 05:41:04;;;;;;;17.02;5.38;;;;;;;;;;5110879;28;20024;-67
2021/08/24 05:43:30;;;;;;;16.25;5.00;;;;;;;;;;5090153;28;20473;-68
2021/08/24 05:45:57;;;;;;;12.45;5.10;;;;;;;;;;5092827;28;20046;-68
2021/08/24 05:48:23;;;;;;;9.73;5.80;;;;;;;;;;5089460;28;20044;-68
2021/08/24 05:50:49;;;;;;;13.85;5.50;;;;;;;;;;5090544;28;20479;-69
2021/08/24 05:53:15;;;;;;;15.55;5.40;;;;;;;;;;5086540;28;20064;-67
2021/08/24 05:55:42;;;;;;;11.00;4.93;;;;;;;;;;5072290;28;20051;-68
2021/08/24 05:58:08;;;;;;;10.80;4.90;;;;;;;;;;5088157;28;20402;-68
2021/08/24 06:00:34;;;;;;;11.80;4.97;;;;;;;;;;5074569;28;20025;-68
2021/08/24 06:03:00;;;;;;;13.50;5.35;;;;;;;;;;5071472;28;20027;-68
2021/08/24 06:05:26;;;;;;;10.38;5.00;;;;;;;;;;5089943;28;20468;-67
2021/08/24 06:07:52;;;;;;;10.00;5.55;;;;;;;;;;5074767;28;20020;-68
2021/08/24 06:10:18;;;;;;;13.55;5.57;;;;;;;;;;5074263;28;20021;-68
2021/08/24 06:12:45;;;;;;;9.20;5.10;;;;;;;;;;5086981;28;20250;-67
2021/08/24 06:15:11;;;;;;;12.23;4.90;;;;;;;;;;5074385;28;20028;-68
2021/08/24 06:17:37;;;;;;;12.50;5.40;;;;;;;;;;5074234;28;20032;-67
2021/08/24 06:20:04;;;;;;;11.00;5.38;;;;;;;;;;5074254;28;20403;-67
2021/08/24 06:22:30;;;;;;;17.05;6.05;;;;;;;;;;5086393;28;20136;-68
2021/08/24 06:24:56;;;;;;;15.90;6.00;;;;;;;;;;5073976;28;20037;-68
2021/08/24 06:27:25;;;;;;;13.40;5.38;;;;;;;;;;5074094;28;20029;-68
2021/08/24 06:29:51;;;;;;;13.32;5.25;;;;;;;;;;5074361;28;20104;-68
2021/08/24 06:32:23;;;;;;;13.18;6.10;;;;;;;;;;5072004;28;20054;-69
2021/08/24 06:34:49;;;;;;;10.93;5.15;;;;;;;;;;5086108;28;20570;-68
2021/08/24 06:37:15;;;;;;;10.27;6.15;;;;;;;;;;5094168;28;20078;-68
2021/08/24 06:39:41;;;;;;;11.48;6.38;;;;;;;;;;5094096;28;20020;-67
2021/08/24 06:42:07;;;;;;;13.27;6.95;;;;;;;;;;5093169;28;20486;-66
2021/08/24 06:44:33;;;;;;;17.02;6.60;;;;;;;;;;5091984;28;20020;-68
2021/08/24 06:46:59;;;;;;;17.05;6.70;;;;;;;;;;5092779;28;20057;-68
2021/08/24 06:49:25;;;;;;;14.65;6.60;;;;;;;;;;5109679;28;20047;-68
2021/08/24 06:51:51;;;;;;;11.43;7.00;;;;;;;;;;5114338;28;20024;-67
2021/08/24 06:54:17;;;;;;;12.98;7.28;;;;;;;;;;5104389;28;20076;-67
2021/08/24 06:56:43;;;;;;;14.55;7.32;;;;;;;;;;5093905;28;20037;-66
2021/08/24 06:59:10;;;;;;;14.98;7.63;;;;;;;;;;5093897;28;20027;-67
2021/08/24 07:01:36;;;;;;;17.20;8.05;;;;;;;;;;5093537;28;20061;-67
2021/08/24 07:04:02;;;;;;;13.50;7.57;;;;;;;;;;5090830;28;20055;-67
2021/08/24 07:06:29;;;;;;;15.63;7.97;;;;;;;;;;5092199;28;20024;-67
2021/08/24 07:08:56;;;;;;;19.40;8.38;;;;;;;;;;5093038;28;20046;-68
2021/08/24 07:11:26;;;;;;;12.63;6.47;;;;;;;;;;5093270;28;20024;-67
2021/08/24 07:13:52;;;;;;;13.35;7.50;;;;;;;;;;5090984;28;20326;-67
2021/08/24 07:16:18;;;;;;;17.52;7.78;;;;;;;;;;5092069;28;20089;-68
2021/08/24 07:18:44;;;;;;;14.35;7.00;;;;;;;;;;5093532;28;20032;-68
2021/08/24 07:21:13;;;;;;;18.15;7.22;;;;;;;;;;5091686;28;20623;-68
2021/08/24 07:23:39;;;;;;;13.38;7.75;;;;;;;;;;5090612;28;20030;-67
2021/08/24 07:26:05;;;;;;;15.73;8.13;;;;;;;;;;5093007;28;20032;-66
2021/08/24 07:28:31;;;;;;;18.63;8.75;;;;;;;;;;5093269;28;20409;-67
2021/08/24 07:30:57;;;;;;;14.50;6.78;;;;;;;;;;5093076;28;20069;-68
2021/08/24 07:33:24;;;;;;;18.38;7.57;;;;;;;;;;5090571;28;20100;-68
2021/08/24 07:35:50;;;;;;;16.55;7.38;;;;;;;;;;5113815;28;20124;-67
2021/08/24 07:38:17;;;;;;;13.65;7.70;;;;;;;;;;5113475;28;20024;-67
2021/08/24 07:40:43;;;;;;;13.90;7.22;;;;;;;;;;5113165;28;20477;-68
2021/08/24 07:43:09;;;;;;;12.60;6.93;;;;;;;;;;5110222;28;20511;-68
2021/08/24 07:45:35;;;;;;;13.63;6.13;;;;;;;;;;5094935;28;20039;-67
2021/08/24 07:48:01;;;;;;;12.77;6.47;;;;;;;;;;5113257;28;20035;-68
2021/08/24 07:50:27;;;;;;;14.85;6.78;;;;;;;;;;5113136;28;20011;-67
2021/08/24 07:52:53;;;;;;;13.38;6.45;;;;;;;;;;5110055;28;20015;-67
2021/08/24 07:55:20;;;;;;;11.30;6.80;;;;;;;;;;5097422;28;20069;-68
2021/08/24 07:57:46;;;;;;;14.48;5.88;;;;;;;;;;5074786;28;20032;-67
2021/08/24 08:00:12;;;;;;;11.82;6.60;;;;;;;;;;5074042;28;20047;-66
2021/08/24 08:02:38;;;;;;;17.02;6.45;;;;;;;;;;5071372;28;20666;-67
2021/08/24 08:05:04;;;;;;;10.93;5.55;;;;;;;;;;5092383;28;20028;-68
2021/08/24 08:07:30;;;;;;;11.30;4.97;;;;;;;;;;5074394;28;20402;-67
2021/08/24 08:09:56;;;;;;;14.30;6.13;;;;;;;;;;5073753;28;20089;-67
2021/08/24 08:12:22;;;;;;;13.95;5.85;;;;;;;;;;5089764;28;20712;-68
2021/08/24 08:14:49;;;;;;;17.33;6.45;;;;;;;;;;5092118;28;20107;-68
2021/08/24 08:17:15;;;;;;;15.55;6.65;;;;;;;;;;5074280;28;20492;-68
2021/08/24 08:19:41;;;;;;;14.75;7.03;;;;;;;;;;5091578;28;20017;-67
2021/08/24 08:22:08;;;;;;;11.27;5.68;;;;;;;;;;5091207;28;20023;-68
2021/08/24 08:24:34;;;;;;;21.25;8.10;;;;;;;;;;5071906;28;20028;-69
2021/08/24 08:27:00;;;;;;;15.40;6.78;;;;;;;;;;5092010;28;20485;-68
2021/08/24 08:29:26;;;;;;;16.30;8.20;;;;;;;;;;5091966;28;20024;-68
2021/08/24 08:31:53;;;;;;;14.35;7.15;;;;;;;;;;5091789;28;20065;-67
2021/08/24 08:34:19;;;;;;;14.13;6.93;;;;;;;;;;5097359;28;20027;-68
2021/08/24 08:36:48;;;;;;;13.55;7.75;;;;;;;;;;5093910;28;20512;-68
2021/08/24 08:39:15;;;;;;;12.85;6.95;;;;;;;;;;5094163;28;20024;-68
2021/08/24 08:41:50;;;;;;;17.05;7.20;;;;;;;;;;5093134;28;20038;-68
2021/08/24 08:44:31;;;;;;;11.98;5.68;;;;;;;;;;5109348;28;20076;-68
2021/08/24 08:47:06;;;;;;;12.13;6.63;;;;;;;;;;5112024;28;20024;-67
2021/08/24 08:49:45;;;;;;;12.30;6.80;;;;;;;;;;5111854;28;20527;-68
2021/08/24 08:52:14;;;;;;;11.48;5.93;;;;;;;;;;5092358;28;20466;-68
2021/08/24 08:54:43;;;;;;;11.55;6.38;;;;;;;;;;5088737;28;20505;-68
2021/08/24 08:57:13;;;;;;;11.98;6.35;;;;;;;;;;5091641;28;20036;-68
2021/08/24 08:59:45;;;;;;;10.93;6.53;;;;;;;;;;5091592;28;20039;-67
2021/08/24 09:02:11;;;;;;;10.88;5.90;;;;;;;;;;5071857;28;20485;-68
2021/08/24 09:04:47;;;;;;;10.63;6.63;;;;;;;;;;5089712;28;20070;-68
2021/08/24 09:07:19;;;;;;;10.85;6.75;;;;;;;;;;5091474;28;20107;-69
2021/08/24 09:09:45;;;;;;;12.63;5.25;;;;;;;;;;5091393;28;20089;-68
2021/08/24 09:12:12;;;;;;;10.85;6.03;;;;;;;;;;5090119;28;20063;-68
2021/08/24 09:14:44;;;;;;;13.15;6.35;;;;;;;;;;5089750;28;20397;-68
2021/08/24 09:17:24;;;;;;;10.77;5.68;;;;;;;;;;5091178;28;20060;-68
2021/08/24 09:20:09;;;;;;;10.02;5.53;;;;;;;;;;5091009;28;20037;-68
2021/08/24 09:22:38;;;;;;;11.35;4.82;;;;;;;;;;5088172;28;20197;-67
2021/08/24 09:25:07;;;;;;;9.05;4.43;;;;;;;;;;5090931;28;20036;-68
2021/08/24 09:27:39;;;;;;;12.35;4.90;;;;;;;;;;5091277;28;20016;-67
2021/08/24 09:30:06;;;;;;;15.55;5.82;;;;;;;;;;5091114;28;20032;-69
2021/08/24 09:32:32;;;;;;;10.27;4.85;;;;;;;;;;5087925;28;20024;-67
2021/08/24 09:35:21;;;;;;;8.52;5.00;;;;;;;;;;5104888;28;20032;-69
2021/08/24 09:37:47;;;;;;;10.65;5.20;;;;;;;;;;5098371;28;20196;-69
2021/08/24 09:40:13;;;;;;;13.57;4.70;;;;;;;;;;5092989;28;20118;-69
2021/08/24 09:42:44;;;;;;;12.30;5.43;;;;;;;;;;5108410;28;20028;-70
2021/08/24 09:45:19;;;;;;;17.10;5.33;;;;;;;;;;5111368;28;20028;-68
2021/08/24 09:48:05;;;;;;;14.23;5.57;;;;;;;;;;5111185;28;20513;-67
2021/08/24 09:50:32;;;;;;;10.38;4.50;;;;;;;;;;5111212;28;20054;-68
2021/08/24 09:52:59;;;;;;;15.50;5.15;;;;;;;;;;5108179;28;20095;-67
2021/08/24 09:55:27;;;;;;;12.20;5.50;;;;;;;;;;5094854;28;20525;-68
2021/08/24 09:58:04;;;;;;;20.25;5.85;;;;;;;;;;5091112;28;20024;-69
2021/08/24 10:00:36;;;;;;;16.90;5.30;;;;;;;;;;5090897;28;20028;-69
2021/08/24 10:03:03;;;;;;;13.50;4.68;;;;;;;;;;5087575;28;20086;-67
2021/08/24 10:05:37;;;;;;;10.48;4.80;;;;;;;;;;5090574;28;20024;-68
2021/08/24 10:08:22;;;;;;;15.75;5.22;;;;;;;;;;5090683;28;20028;-67
2021/08/24 10:10:59;;;;;;;12.93;4.63;;;;;;;;;;5090606;28;20020;-68
2021/08/24 10:13:32;;;;;;;12.32;3.92;;;;;;;;;;5087369;28;20039;-67
2021/08/24 10:16:06;;;;;;;13.05;5.30;;;;;;;;;;5090593;28;20103;-68
2021/08/24 10:18:34;;;;;;;19.00;5.80;;;;;;;;;;5090975;28;20028;-68
2021/08/24 10:21:02;;;;;;;10.93;4.70;;;;;;;;;;5090765;28;20443;-70
2021/08/24 10:23:32;;;;;;;16.73;5.15;;;;;;;;;;5087397;28;20081;-68
2021/08/24 10:26:00;;;;;;;13.07;5.10;;;;;;;;;;5090434;28;20020;-68
2021/08/24 10:28:32;;;;;;;23.60;5.53;;;;;;;;;;5090621;28;20065;-68
2021/08/24 10:30:58;;;;;;;;;;;;;;;;;;5090906;28;20095;-67
2021/08/24 10:33:24;;;;;;;21.23;6.35;;;;;;;;;;5087974;28;19947;-68
2021/08/24 10:35:52;;;;;;;11.50;4.88;;;;;;;;;;5092534;28;20047;-68
2021/08/24 10:38:19;;;;;;;17.75;5.20;;;;;;;;;;5110850;28;20110;-66
2021/08/24 10:40:46;;;;;;;12.90;5.75;;;;;;;;;;5110528;28;20050;-68
2021/08/24 10:43:15;;;;;;;14.93;6.00;;;;;;;;;;5108227;28;20489;-68
2021/08/24 10:45:43;;;;;;;17.02;5.72;;;;;;;;;;5114541;28;20027;-68
2021/08/24 10:48:19;;;;;;;15.55;6.47;;;;;;;;;;5095946;28;20104;-68
2021/08/24 10:50:45;;;;;;;17.80;6.25;;;;;;;;;;5095983;28;20551;-68
2021/08/24 10:53:29;;;;;;;18.35;5.60;;;;;;;;;;5111155;28;20065;-68
2021/08/24 10:55:57;;;;;;;16.23;5.75;;;;;;;;;;5075606;28;20174;-68
2021/08/24 10:58:31;;;;;;;11.60;5.88;;;;;;;;;;5093768;28;20505;-68
2021/08/24 11:01:01;;;;;;;12.88;5.82;;;;;;;;;;5093864;28;20024;-66
2021/08/24 11:03:44;;;;;;;17.88;5.90;;;;;;;;;;5072423;28;20024;-68
2021/08/24 11:06:19;;;;;;;13.20;5.65;;;;;;;;;;5075281;28;20020;-68
2021/08/24 11:08:54;;;;;;;12.52;5.65;;;;;;;;;;5093773;28;20031;-69
2021/08/24 11:11:28;;;;;;;18.15;5.38;;;;;;;;;;5093228;28;20048;-67
2021/08/24 11:14:03;;;;;;;14.77;5.57;;;;;;;;;;5090487;28;20097;-67
2021/08/24 11:16:29;;;;;;;15.73;6.95;;;;;;;;;;5093523;28;20032;-67
2021/08/24 11:19:23;;;;;;;11.48;5.85;;;;;;;;;;5093766;28;20027;-67
2021/08/24 11:21:52;;;;;;;13.15;6.38;;;;;;;;;;5052863;28;20121;-68
2021/08/24 11:24:18;;;;;;;25.75;6.80;;;;;;;;;;5090357;28;20031;-67
2021/08/24 11:26:56;;;;;;;17.48;5.78;;;;;;;;;;5093342;28;20028;-68
2021/08/24 11:29:25;;;;;;;13.70;5.32;;;;;;;;;;5093392;28;20019;-68
2021/08/24 11:32:11;;;;;;;20.88;6.53;;;;;;;;;;5092950;28;20020;-68
2021/08/24 11:34:42;;;;;;;13.07;5.35;;;;;;;;;;5060876;28;20489;-67
2021/08/24 11:37:14;;;;;;;12.13;5.60;;;;;;;;;;5113646;28;20043;-68
2021/08/24 11:39:45;;;;;;;12.38;5.50;;;;;;;;;;5113484;28;20531;-68
2021/08/24 11:42:13;;;;;;;13.85;6.00;;;;;;;;;;5111961;28;20032;-67
2021/08/24 11:44:48;;;;;;;13.10;5.78;;;;;;;;;;5111814;28;20027;-69
2021/08/24 11:47:15;;;;;;;16.98;6.40;;;;;;;;;;5113084;28;20027;-67
2021/08/24 11:49:44;;;;;;;10.73;5.60;;;;;;;;;;5112969;28;20039;-68
2021/08/24 11:52:16;;;;;;;14.75;5.70;;;;;;;;;;5112090;28;20039;-69
2021/08/24 11:55:01;;;;;;;15.77;5.82;;;;;;;;;;5090317;28;20019;-68
2021/08/24 11:57:30;;;;;;;14.15;6.35;;;;;;;;;;5074797;28;20487;-68
2021/08/24 11:59:57;;;;;;;11.23;5.63;;;;;;;;;;5092757;28;20060;-68
2021/08/24 12:02:28;;;;;;;11.77;6.55;;;;;;;;;;5071684;28;20040;-68
2021/08/24 12:04:55;;;;;;;11.85;6.10;;;;;;;;;;5092439;28;20032;-68
2021/08/24 12:07:38;;;;;;;13.50;5.68;;;;;;;;;;5092497;28;20088;-67
2021/08/24 12:10:24;;;;;;;15.40;6.22;;;;;;;;;;5092351;28;20070;-68
2021/08/24 12:12:52;;;;;;;18.27;5.80;;;;;;;;;;5057982;28;20502;-69
2021/08/24 12:15:24;;;;;;;13.60;5.00;;;;;;;;;;5092212;28;20432;-69
2021/08/24 12:17:59;;;;;;;10.88;4.85;;;;;;;;;;5092301;28;20402;-67
2021/08/24 12:20:31;;;;;;;12.05;5.43;;;;;;;;;;5092104;28;20032;-68
2021/08/24 12:23:00;;;;;;;11.07;4.45;;;;;;;;;;5070940;28;20027;-67
2021/08/24 12:25:41;;;;;;;11.98;4.63;;;;;;;;;;5091818;28;20020;-67
2021/08/24 12:28:28;;;;;;;12.48;5.57;;;;;;;;;;5092203;28;20178;-68
2021/08/24 12:30:57;;;;;;;10.82;4.32;;;;;;;;;;5091863;28;20027;-68
2021/08/24 12:33:28;;;;;;;13.77;4.72;;;;;;;;;;5089523;28;20027;-70
2021/08/24 12:35:55;;;;;;;11.23;4.25;;;;;;;;;;5112592;28;20028;-68
2021/08/24 12:38:41;;;;;;;12.30;4.47;;;;;;;;;;5112154;28;20023;-68
2021/08/24 12:41:07;;;;;;;18.90;4.30;;;;;;;;;;5112089;28;20051;-67
2021/08/24 12:43:40;;;;;;;14.18;4.85;;;;;;;;;;5109094;28;20027;-67
2021/08/24 12:46:18;;;;;;;16.95;4.25;;;;;;;;;;5112034;28;20046;-66
2021/08/24 12:49:03;;;;;;;11.65;4.75;;;;;;;;;;5112027;28;20416;-67
2021/08/24 12:51:30;;;;;;;12.88;4.63;;;;;;;;;;5093383;28;20032;-67
2021/08/24 12:54:01;;;;;;;11.65;4.60;;;;;;;;;;5087248;28;20024;-68
2021/08/24 12:56:35;;;;;;;18.30;5.03;;;;;;;;;;5091657;28;20115;-68
2021/08/24 12:59:02;;;;;;;14.32;4.80;;;;;;;;;;5091611;28;20039;-68
2021/08/24 13:01:29;;;;;;;12.65;6.20;;;;;;;;;;5091341;28;20072;-67
2021/08/24 13:03:55;;;;;;;17.25;5.15;;;;;;;;;;5070419;28;20020;-67
2021/08/24 13:06:24;;;;;;;9.57;4.47;;;;;;;;;;5072988;28;20306;-68
2021/08/24 13:08:51;;;;;;;9.73;3.78;;;;;;;;;;5091698;28;20489;-68
2021/08/24 13:11:30;;;;;;;15.90;5.50;;;;;;;;;;5091239;28;20085;-68
2021/08/24 13:14:07;;;;;;;11.45;4.22;;;;;;;;;;5088569;28;20036;-66
2021/08/24 13:16:40;;;;;;;11.48;4.00;;;;;;;;;;5072833;28;20093;-68
2021/08/24 13:19:14;;;;;;;9.35;3.80;;;;;;;;;;5091010;28;20024;-68
2021/08/24 13:21:53;;;;;;;13.35;4.05;;;;;;;;;;5072793;28;20405;-67
2021/08/24 13:24:23;;;;;;;8.70;3.70;;;;;;;;;;5088146;28;20032;-69
2021/08/24 13:26:54;;;;;;;9.82;3.70;;;;;;;;;;5091020;28;20481;-68
2021/08/24 13:29:22;;;;;;;12.77;4.45;;;;;;;;;;5091169;28;20031;-68
2021/08/24 13:32:00;;;;;;;10.50;4.50;;;;;;;;;;5090955;28;20020;-67
2021/08/24 13:34:43;;;;;;;11.52;3.83;;;;;;;;;;5097356;28;20110;-67
2021/08/24 13:37:09;;;;;;;9.93;3.70;;;;;;;;;;5092971;28;20031;-68
2021/08/24 13:39:55;;;;;;;13.00;4.00;;;;;;;;;;5111134;28;20357;-67
2021/08/24 13:42:21;;;;;;;22.98;4.28;;;;;;;;;;5108656;28;20023;-68
2021/08/24 13:44:47;;;;;;;10.15;3.45;;;;;;;;;;5092852;28;20020;-67
2021/08/24 13:47:18;;;;;;;12.65;3.33;;;;;;;;;;5111257;28;20020;-67
2021/08/24 13:49:48;;;;;;;13.50;3.53;;;;;;;;;;5111097;28;20412;-68
2021/08/24 13:52:25;;;;;;;14.38;3.80;;;;;;;;;;5109410;28;20042;-67
2021/08/24 13:54:52;;;;;;;12.02;3.72;;;;;;;;;;5099258;28;20040;-68
2021/08/24 13:57:23;;;;;;;10.20;3.30;;;;;;;;;;5090537;28;20027;-68
2021/08/24 13:59:49;;;;;;;13.15;3.72;;;;;;;;;;5090784;28;20042;-67
2021/08/24 14:02:15;;;;;;;12.05;3.78;;;;;;;;;;5088940;28;20119;-67
2021/08/24 14:04:45;;;;;;;12.25;3.67;;;;;;;;;;5088225;28;20020;-67
2021/08/24 14:07:26;;;;;;;10.80;3.13;;;;;;;;;;5090654;28;20028;-67
2021/08/24 14:09:52;;;;;;;9.88;3.38;;;;;;;;;;5089281;28;20076;-67
2021/08/24 14:12:21;;;;;;;9.00;3.45;;;;;;;;;;5088733;28;20043;-67
2021/08/24 14:14:53;;;;;;;8.85;3.72;;;;;;;;;;5090239;28;20012;-67
2021/08/24 14:17:19;;;;;;;;;;;;;;;;;;5091134;28;20032;-67
2021/08/24 14:19:45;;;;;;;10.30;3.35;;;;;;;;;;5093598;28;19908;-68
2021/08/24 14:22:13;;;;;;;10.18;3.45;;;;;;;;;;5093224;28;20028;-66
2021/08/24 14:24:39;;;;;;;12.05;3.72;;;;;;;;;;5093049;28;20107;-67
2021/08/24 14:27:06;;;;;;;11.20;3.55;;;;;;;;;;5092879;28;20142;-68
2021/08/24 14:29:34;;;;;;;8.00;3.38;;;;;;;;;;5076059;28;20024;-67
2021/08/24 14:32:00;;;;;;;13.82;3.47;;;;;;;;;;5094174;28;20024;-68
2021/08/24 14:34:29;;;;;;;11.57;3.38;;;;;;;;;;5101026;28;20027;-67
2021/08/24 14:36:57;;;;;;;11.50;3.67;;;;;;;;;;5114733;28;20042;-67
2021/08/24 14:39:27;;;;;;;12.90;3.85;;;;;;;;;;5114392;28;20027;-67
2021/08/24 14:41:58;;;;;;;9.05;3.05;;;;;;;;;;5114386;28;20107;-67
2021/08/24 14:44:26;;;;;;;11.07;4.07;;;;;;;;;;5111596;28;20023;-68
2021/08/24 14:47:02;;;;;;;12.27;3.42;;;;;;;;;;5114548;28;20389;-68